Logo AVAMET
Benvolgut visitant, si us plau, ingressa Recuperar contrasenya
AVAMET paisatges

Xacarella El Copo

Dades diàries. Acumulats / Últims 30 dies disponibles

Data Temperatura (°C) Humitat rel. (%) Pressió rel. (hPa) Vent (km/h) Precipitació
Mínima Mitjana Màxima Amplitud
tèrmica
Mínima Mitjana Màxima Mínima Mitjana Màxima Predom. Mitjana Ràfega
màxima
Total
(mm)
Índex-n
Mínima Mitjana Màxima Mínima Mitjana Màxima n
0 a 1
P0 max
mm 5'
Dades mensuals acumulades fins l'últim dia disponible
07/2020 19,0 20,3 21,5 26,2 28,7 31,5 37,6 18,6 25 69 93 1.006 1.013 1.019   8,9 40,2 0,0
Dades anuals acumulades fins l'últim dia disponible
2020 3,6 12,4 22,8 17,6 10,1 22,8 37,6 34,0 0 70 97 1.000 1.016 1.033   8,6 74,0 228,8
Últims 30 dies disponibles
08-07-2020 21,2     25,8     30,0 8,8 49 72 93 1.012 1.013 1.014 SE 10,1 25,7 0,0
07-07-2020 19,2     25,8     32,1 12,9 39 67 93 1.011 1.012 1.013 S 8,8 28,9 0,0
06-07-2020 19,0     25,9     32,1 13,1 33 59 90 1.012 1.014 1.015 S 8,8 25,7 0,0
05-07-2020 19,7     25,0     29,6 9,9 48 69 90 1.015 1.017 1.018 S 6,8 22,5 0,0
04-07-2020 21,0     25,6     28,7 7,7 60 75 93 1.017 1.018 1.019 SSE 9,5 24,1 0,0
03-07-2020 21,5     25,7     30,1 8,6 59 77 93 1.012 1.014 1.016 S 9,2 28,9 0,0
02-07-2020 20,5     26,0     31,5 11,0 60 76 91 1.008 1.010 1.011 SSE 8,6 24,1 0,0
01-07-2020 20,3     29,8     37,6 17,3 25 56 90 1.006 1.008 1.010 SSO 9,2 40,2 0,0
30-06-2020 20,0     25,9     30,5 10,5 47 72 93 1.008 1.011 1.012 SE 9,0 24,1 0,0
29-06-2020 21,9     25,0     30,4 8,5 34 74 95 1.011 1.013 1.015 ENE 3,6 22,5 0,0
28-06-2020 20,9     24,4     26,8 5,9 42 73 93 1.013 1.014 1.015 SW 3,7 17,7 0,0
27-06-2020 21,7     24,3     26,4 4,7 29 71 93 1.011 1.012 1.013 S 3,5 17,7 0,0
26-06-2020 22,8     26,1     31,4 8,6 52 74 90 1.009 1.011 1.013 E 5,7 29,0 0,0
25-06-2020 22,5     27,5     32,4 9,9 30 57 89 1.010 1.012 1.014 NE 8,2 32,2 0,0
24-06-2020 20,7     24,9     28,7 8,0 43 65 90 1.013 1.014 1.016 ENE 5,7 33,8 0,0
23-06-2020 21,1     24,5     27,8 6,7 47 66 87 1.013 1.016 1.017 NNW 3,8 24,1 0,0
22-06-2020 20,6     24,6     30,0 9,4 38 68 93 1.016 1.018 1.019 SSE 2,8 17,7 0,0
21-06-2020 19,8     23,3     26,6 6,8 54 71 93 1.017 1.018 1.019 S 4,0 20,9 0,0
20-06-2020 19,0     23,2     26,7 7,7 51 70 90 1.017 1.018 1.019 SW 6,3 25,7 0,0
19-06-2020 21,3     23,0     25,4 4,1 57 73 92 1.013 1.015 1.016 ENE 5,1 20,9 0,0
18-06-2020 19,8     22,5     25,9 6,1 59 78 93 1.010 1.011 1.012 ENE 6,5 29,0 0,0
17-06-2020 17,6     22,3     26,9 9,3 58 79 94 1.010 1.012 1.014 SSE 8,2 35,4 0,0
16-06-2020 17,1     22,8     28,8 11,7 42 68 89 1.011 1.013 1.015 ESE 8,3 32,2 0,0
15-06-2020 18,5     22,7     27,6 9,1 26 48 87 1.014 1.016 1.017 WSW 4,2 19,3 0,0
14-06-2020 17,8     21,2     24,7 6,9 31 52 78 1.013 1.015 1.016 NNW 4,3 22,5 0,0
13-06-2020 20,4     23,6     27,8 7,4 29 39 51 1.007 1.011 1.013 WSW 10,0 35,4 0,0
12-06-2020 20,3     23,3     26,2 5,9 35 46 59 1.001 1.003 1.004 SW 7,2 29,0 0,0
11-06-2020 17,2     24,1     30,3 13,1 34 63 94 1.000 1.005 1.010 SSO 8,9 30,5 0,2
10-06-2020 15,0     23,4     27,0 12,0 48 69 95 1.010 1.012 1.014 S 9,5 22,5 0,2
09-06-2020 15,9     20,6     24,7 8,8 53 75 94 1.012 1.013 1.015 SSO 7,7 25,7
Últims 13 mesos disponibles
06/2020 15,0 19,1 22,8 23,7 21,8 28,1 32,4 17,4 39 65 83 1.002 1.011 1.018 S 7,3 41,8 25,5
05/2020 12,8 15,2 18,6 21,2 18,1 26,2 31,8 19,0 50 64 83 1.003 1.013 1.023 SSE 9,8 48,2 12,5
04/2020 8,2 11,9 16,6 16,2 15,7 20,5 27,3 19,1 53 75 88 1.003 1.013 1.022 SSE 8,5 40,2 22,6
03/2020 7,3 10,3 15,7 14,8 11,3 19,6 28,8 21,5 39 69 93 1.006 1.015 1.022 OSO 10,3 74,0 104,4
02/2020 3,6 8,0 12,2 14,5 15,4 21,7 26,8 23,2 41 72 88 1.013 1.023 1.031 OSO 7,6 45,1 2,0
01/2020 4,1 6,6 11,5 11,5 10,1 16,8 21,9 17,8 60 74 90 1.011 1.021 1.028 O 7,4 61,2 61,8
12/2019 5,8 9,7 16,4 13,4 10,3 18,0 22,9 17,1 43 74 92 1.003 1.016 1.030 O 8,7 66,0 32,2
11/2019 6,2 11,2 18,9 15,4 15,1 20,0 27,9 21,7 43 59 92 999 1.010 1.017 ONO 11,8 82,1 10,2
10/2019 11,9 17,3 24,1 22,1 22,1 27,3 34,5 22,6 37 70 86 1.008 1.015 1.019 SSW 7,3 41,8 0,2
09/2019 16,0 19,7 22,2 23,7 21,4 28,7 33,9 17,9 45 76 91 1.008 1.014 1.019 SSW 7,5 56,3 189,4
08/2019 19,1 21,5 25,1 26,4 23,8 31,9 40,8 21,7 50 73 93 1.008 1.013 1.017 SSW 7,8 45,1 33,2
07/2019 18,6 21,3 25,3 27,0 29,1 32,7 39,5 20,9 32 64 76 1.004 1.011 1.017 ESE 9,2 54,7 0,0
06/2019 11,9 16,9 21,2 23,1 23,4 28,9 35,1 23,2 40 61 76 1.007 1.013 1.020 SSW 9,3 51,5 1,2
Tots els anys disponibles
2019 0,8 13,6 25,3 18,8 10,3 24,3 40,8 40,0 32 66 93 995 1.014 1.030 SSW 8,8 83,7 406,0
Temperatura (°C)
Humitat relativa (%)
Velocitat del vent i ràfega màxima (km/h)
Direcció del vent (°)
Pressió (hPa)
Precipitació (mm)
Nota sobre les dades: s'avisa a l'usuari de la provisionalitat i no oficialitat d'aquestes dades
Logo AVAMET blanc
Web allotjada a Sollutia
Llicència de Creative CommonsLa web d'AVAMET i els seus continguts estan subjectes a una llicència de
Reconeixement - No Comercial - Compartir igual
Últimes estacions: Càlig (Ajuntament Soci), Quesa - Hotel La Rocha (Soci), Agres - Les Eres (Soci), la Vilavella - Ptda Forns (Soci), Miramar - Platja (Inforatge), San Fulgencio - Centre & San Fulgencio - Urb. La Marina (MeteOrihuela), Ontinyent - els Gínjols (Soci), Orba (Ajuntament Soci), Xixona - Monnegre de Baix (Soci) - - -